Time;durP1;ratioP1;P1;durP2;ratioP2;P2;SDS_P1;SDS_P2;PMS_P1;PMS_P2;Temp;Humidity;BMP_temperature;BMP_pressure;BME280_temperature;BME280_humidity;BME280_pressure;Samples;Min_cycle;Max_cycle;Signal;HPM_P1;HPM_P2
2023/04/08 00:01:41;;;;;;;1999.90;999.90;;;9.10;99.90;;;;;;5011924;28;20173;-73
2023/04/08 00:04:08;;;;;;;1999.90;999.90;;;8.90;99.90;;;;;;5012161;28;20171;-73
2023/04/08 00:06:34;;;;;;;1999.90;999.90;;;8.90;99.90;;;;;;5011731;28;20559;-73
2023/04/08 00:08:59;;;;;;;1999.90;999.90;;;8.90;99.90;;;;;;5012020;28;20419;-73
2023/04/08 00:11:25;;;;;;;1999.90;999.90;;;8.90;99.90;;;;;;5011724;28;20414;-73
2023/04/08 00:13:51;;;;;;;1999.90;999.90;;;8.90;99.90;;;;;;5011562;28;20203;-72
2023/04/08 00:16:16;;;;;;;1999.90;999.90;;;9.10;99.90;;;;;;5011842;28;20208;-72
2023/04/08 00:18:42;;;;;;;1999.90;999.90;;;9.20;99.90;;;;;;5011999;28;20171;-72
2023/04/08 00:21:08;;;;;;;1999.90;999.90;;;8.90;99.90;;;;;;5011223;28;20176;-72
2023/04/08 00:23:34;;;;;;;1999.90;999.90;;;8.90;99.90;;;;;;5011981;28;20175;-73
2023/04/08 00:25:59;;;;;;;1999.90;999.90;;;8.90;99.90;;;;;;5011690;28;20426;-72
2023/04/08 00:28:25;;;;;;;1999.90;999.90;;;8.90;99.90;;;;;;5011537;28;20538;-73
2023/04/08 00:30:52;;;;;;;1999.90;999.90;;;8.80;99.90;;;;;;5012312;28;20172;-72
2023/04/08 00:33:17;;;;;;;1999.90;999.90;;;8.90;99.90;;;;;;5012466;28;20168;-73
2023/04/08 00:35:43;;;;;;;1999.90;999.90;;;8.80;99.90;;;;;;5012337;28;20429;-72
2023/04/08 00:38:09;;;;;;;1999.90;999.90;;;8.80;99.90;;;;;;5012546;28;20173;-72
2023/04/08 00:40:34;;;;;;;1999.90;999.90;;;8.80;99.90;;;;;;5012262;28;20166;-72
2023/04/08 00:43:00;;;;;;;1999.90;999.90;;;8.80;99.90;;;;;;5011624;28;20619;-72
2023/04/08 00:45:26;;;;;;;1999.90;999.90;;;9.20;99.90;;;;;;5012550;28;20231;-72
2023/04/08 00:47:51;;;;;;;1999.90;999.90;;;8.70;99.90;;;;;;5012127;28;20183;-72
2023/04/08 00:50:19;;;;;;;1999.90;999.90;;;8.90;99.90;;;;;;5011714;28;20171;-72
2023/04/08 00:52:45;;;;;;;1999.90;999.90;;;9.00;99.90;;;;;;5012003;28;20199;-72
2023/04/08 00:55:10;;;;;;;1999.90;999.90;;;8.90;99.90;;;;;;5011844;28;21063;-72
2023/04/08 00:57:36;;;;;;;1999.90;999.90;;;9.00;99.90;;;;;;5011709;28;20408;-72
2023/04/08 01:00:06;;;;;;;1999.90;999.90;;;9.00;99.90;;;;;;5012046;28;20255;-72
2023/04/08 01:02:46;;;;;;;1999.90;999.90;;;9.00;99.90;;;;;;5011744;28;20664;-72
2023/04/08 01:05:18;;;;;;;1999.90;999.90;;;9.00;99.90;;;;;;5011725;28;20519;-72
2023/04/08 01:07:47;;;;;;;1999.90;999.90;;;9.00;99.90;;;;;;5012123;28;20450;-72
2023/04/08 01:10:18;;;;;;;1999.90;999.90;;;8.90;99.90;;;;;;5016005;28;20797;-72
2023/04/08 01:12:54;;;;;;;1999.90;999.90;;;8.90;99.90;;;;;;5014972;28;20439;-72
2023/04/08 01:15:23;;;;;;;1999.90;999.90;;;8.90;99.90;;;;;;5015003;28;20464;-72
2023/04/08 01:17:52;;;;;;;1999.90;999.90;;;8.60;99.90;;;;;;5015222;28;20489;-72
2023/04/08 01:20:18;;;;;;;1999.90;999.90;;;8.70;99.90;;;;;;5014692;28;20415;-72
2023/04/08 01:23:04;;;;;;;1999.90;999.90;;;8.80;99.90;;;;;;5014938;28;20418;-72
2023/04/08 01:25:33;;;;;;;1999.90;999.90;;;8.60;99.90;;;;;;5014409;28;20572;-72
2023/04/08 01:28:08;;;;;;;1999.90;999.90;;;8.60;99.90;;;;;;5014603;28;20999;-72
2023/04/08 01:30:40;;;;;;;1999.90;999.90;;;8.60;99.90;;;;;;5014862;28;20404;-72
2023/04/08 01:33:06;;;;;;;1999.90;999.90;;;8.60;99.90;;;;;;5014579;28;20412;-71
2023/04/08 01:35:32;;;;;;;1999.90;999.90;;;8.60;99.90;;;;;;5014525;28;20434;-71
2023/04/08 01:37:59;;;;;;;1999.90;999.90;;;8.50;99.90;;;;;;5014783;28;20407;-71
2023/04/08 01:40:25;;;;;;;1999.90;999.90;;;8.50;99.90;;;;;;5014764;28;20458;-72
2023/04/08 01:42:55;;;;;;;1999.90;999.90;;;8.50;99.90;;;;;;5014045;28;20442;-71
2023/04/08 01:45:22;;;;;;;1999.90;999.90;;;8.50;99.90;;;;;;5014529;28;20515;-71
2023/04/08 01:47:48;;;;;;;1999.90;999.90;;;8.60;99.90;;;;;;5014664;28;20427;-72
2023/04/08 01:50:15;;;;;;;1999.90;999.90;;;8.60;99.90;;;;;;5014164;28;20419;-71
2023/04/08 01:52:43;;;;;;;1999.90;999.90;;;8.50;99.90;;;;;;5014262;28;20412;-72
2023/04/08 01:55:09;;;;;;;1999.90;999.90;;;8.50;99.90;;;;;;5014252;28;20457;-72
2023/04/08 01:57:37;;;;;;;1999.90;999.90;;;8.50;99.90;;;;;;5013984;28;20438;-72
2023/04/08 02:00:11;;;;;;;1999.90;999.90;;;8.60;99.90;;;;;;5014370;28;20851;-72
2023/04/08 02:02:39;;;;;;;1999.90;999.90;;;8.50;99.90;;;;;;5014103;28;20412;-72
2023/04/08 02:05:05;;;;;;;1999.90;999.90;;;8.50;99.90;;;;;;5013728;28;20826;-71
2023/04/08 02:07:31;;;;;;;1999.90;999.90;;;8.50;99.90;;;;;;5014186;28;20410;-72
2023/04/08 02:09:57;;;;;;;1999.90;999.90;;;8.50;99.90;;;;;;5014189;28;20820;-72
2023/04/08 02:12:23;;;;;;;1999.90;999.90;;;8.30;99.90;;;;;;5013368;28;20642;-72
2023/04/08 02:14:49;;;;;;;1999.90;999.90;;;8.50;99.90;;;;;;5014068;28;20481;-71
2023/04/08 02:17:26;;;;;;;1999.90;999.90;;;8.50;99.90;;;;;;5013964;28;20953;-71
2023/04/08 02:20:05;;;;;;;1999.90;999.90;;;8.50;99.90;;;;;;5013323;28;20553;-71
2023/04/08 02:22:48;;;;;;;1999.90;999.90;;;8.50;99.90;;;;;;5013611;28;20548;-72
2023/04/08 02:25:15;;;;;;;1999.90;999.90;;;8.40;99.90;;;;;;5013842;28;20420;-71
2023/04/08 02:27:43;;;;;;;1999.90;999.90;;;8.50;99.90;;;;;;5013517;28;20414;-71
2023/04/08 02:30:10;;;;;;;1999.90;999.90;;;8.50;99.90;;;;;;5013799;28;20433;-71
2023/04/08 02:32:37;;;;;;;1999.90;999.90;;;8.50;99.90;;;;;;5013354;28;20416;-71
2023/04/08 02:35:04;;;;;;;1999.90;999.90;;;8.40;99.90;;;;;;5013160;28;20511;-71
2023/04/08 02:37:31;;;;;;;1999.90;999.90;;;8.50;99.90;;;;;;5013563;28;20445;-71
2023/04/08 02:39:56;;;;;;;1999.90;999.90;;;8.40;99.90;;;;;;5013632;28;20410;-72
2023/04/08 02:42:22;;;;;;;1999.90;999.90;;;8.50;99.90;;;;;;5012913;28;20403;-71
2023/04/08 02:44:48;;;;;;;1999.90;999.90;;;8.40;99.90;;;;;;5013461;28;20221;-71
2023/04/08 02:47:13;;;;;;;1999.90;999.90;;;8.50;99.90;;;;;;5013535;28;20257;-72
2023/04/08 02:49:39;;;;;;;1999.90;999.90;;;8.50;99.90;;;;;;5013051;28;20318;-72
2023/04/08 02:52:04;;;;;;;1999.90;999.90;;;8.50;99.90;;;;;;5013295;28;20192;-71
2023/04/08 02:54:30;;;;;;;1999.90;999.90;;;8.60;99.90;;;;;;5013334;28;20194;-72
2023/04/08 02:56:55;;;;;;;1999.90;999.90;;;8.80;99.90;;;;;;5012926;28;20233;-71
2023/04/08 02:59:21;;;;;;;1999.90;999.90;;;8.60;99.90;;;;;;5013330;28;20179;-71
2023/04/08 03:01:47;;;;;;;1999.90;999.90;;;8.70;99.90;;;;;;5012935;28;20174;-72
2023/04/08 03:04:12;;;;;;;1999.90;999.90;;;8.90;99.90;;;;;;5012786;28;20172;-72
2023/04/08 03:06:38;;;;;;;1999.90;999.90;;;8.70;99.90;;;;;;5013012;28;20298;-72
2023/04/08 03:09:04;;;;;;;1999.90;999.90;;;8.70;99.90;;;;;;5013161;28;20171;-71
2023/04/08 03:11:31;;;;;;;1999.90;999.90;;;8.80;99.90;;;;;;5012355;28;20219;-72
2023/04/08 03:13:56;;;;;;;1999.90;999.90;;;8.70;99.90;;;;;;5012964;28;20541;-70
2023/04/08 03:16:22;;;;;;;1999.90;999.90;;;8.60;99.90;;;;;;5012714;28;20882;-72
2023/04/08 03:18:50;;;;;;;1999.90;999.90;;;8.90;99.90;;;;;;5012804;28;20175;-72
2023/04/08 03:21:15;;;;;;;1999.90;999.90;;;8.90;99.90;;;;;;5012550;28;20222;-72
2023/04/08 03:23:41;;;;;;;1999.90;999.90;;;8.70;99.90;;;;;;5012884;28;20419;-72
2023/04/08 03:26:07;;;;;;;1999.90;999.90;;;8.70;99.90;;;;;;5012268;28;20207;-71
2023/04/08 03:28:32;;;;;;;1999.90;999.90;;;8.70;99.90;;;;;;5012958;28;20191;-72
2023/04/08 03:30:59;;;;;;;1999.90;999.90;;;8.50;99.90;;;;;;5011752;28;20179;-70
2023/04/08 03:33:25;;;;;;;1999.90;999.90;;;8.70;99.90;;;;;;5012138;28;20178;-72
2023/04/08 03:35:52;;;;;;;1999.90;999.90;;;8.60;99.90;;;;;;5012505;28;20431;-72
2023/04/08 03:38:17;;;;;;;1999.90;999.90;;;8.60;99.90;;;;;;5013079;28;20166;-72
2023/04/08 03:40:43;;;;;;;1999.90;999.90;;;8.80;99.90;;;;;;5012121;28;20416;-72
2023/04/08 03:43:10;;;;;;;1999.90;999.90;;;8.70;99.90;;;;;;5012227;28;20167;-72
2023/04/08 03:45:36;;;;;;;1999.90;999.90;;;8.60;99.90;;;;;;5012412;28;20697;-72
2023/04/08 03:48:02;;;;;;;1999.90;999.90;;;8.60;99.90;;;;;;5011967;28;20414;-72
2023/04/08 03:50:27;;;;;;;1999.90;999.90;;;8.60;99.90;;;;;;5012312;28;20176;-72
2023/04/08 03:52:53;;;;;;;1999.90;999.90;;;8.60;99.90;;;;;;5012069;28;20927;-72
2023/04/08 03:55:18;;;;;;;1999.90;999.90;;;8.60;99.90;;;;;;5011913;28;20205;-71
2023/04/08 03:57:44;;;;;;;1999.90;999.90;;;8.80;99.90;;;;;;5012414;28;20640;-71
2023/04/08 04:00:11;;;;;;;1999.90;999.90;;;8.70;99.90;;;;;;5012148;28;20642;-72
2023/04/08 04:02:36;;;;;;;1999.90;999.90;;;8.50;99.90;;;;;;5011437;28;20403;-71
2023/04/08 04:05:02;;;;;;;1999.90;999.90;;;8.60;99.90;;;;;;5012042;28;20437;-71
2023/04/08 04:07:27;;;;;;;1999.90;999.90;;;8.60;99.90;;;;;;5012163;28;20187;-71
2023/04/08 04:09:55;;;;;;;1999.90;999.90;;;8.50;99.90;;;;;;5011776;28;20199;-72
2023/04/08 04:12:21;;;;;;;1999.90;999.90;;;8.60;99.90;;;;;;5011775;28;20168;-72
2023/04/08 04:14:47;;;;;;;1999.90;999.90;;;8.60;99.90;;;;;;5011883;28;20450;-72
2023/04/08 04:17:12;;;;;;;1999.90;999.90;;;8.70;99.90;;;;;;5011427;28;20417;-72
2023/04/08 04:19:38;;;;;;;1999.90;999.90;;;8.60;99.90;;;;;;5011958;28;20199;-71
2023/04/08 04:22:03;;;;;;;1999.90;999.90;;;8.50;99.90;;;;;;5011710;28;20163;-72
2023/04/08 04:24:29;;;;;;;1999.90;999.90;;;8.60;99.90;;;;;;5011525;28;20183;-73
2023/04/08 04:26:55;;;;;;;1999.90;999.90;;;8.60;99.90;;;;;;5011942;28;20261;-72
2023/04/08 04:29:20;;;;;;;1999.90;999.90;;;8.60;99.90;;;;;;5011957;28;20170;-72
2023/04/08 04:31:46;;;;;;;1999.90;999.90;;;8.80;99.90;;;;;;5011143;28;20431;-72
2023/04/08 04:34:12;;;;;;;1999.90;999.90;;;8.50;99.90;;;;;;5011609;28;20217;-72
2023/04/08 04:36:37;;;;;;;1999.90;999.90;;;8.50;99.90;;;;;;5011744;28;20230;-72
2023/04/08 04:39:03;;;;;;;1999.90;999.90;;;8.50;99.90;;;;;;5011457;28;20258;-72
2023/04/08 04:41:28;;;;;;;1999.90;999.90;;;8.50;99.90;;;;;;5011597;28;20172;-72
2023/04/08 04:43:54;;;;;;;1999.90;999.90;;;8.50;99.90;;;;;;5015441;28;20549;-72
2023/04/08 04:46:20;;;;;;;1999.90;999.90;;;8.40;99.90;;;;;;5015248;28;20542;-72
2023/04/08 04:48:45;;;;;;;1999.90;999.90;;;8.50;99.90;;;;;;5015633;28;20229;-72
2023/04/08 04:51:11;;;;;;;1999.90;999.90;;;8.50;99.90;;;;;;5015373;28;20411;-71
2023/04/08 04:53:36;;;;;;;1999.90;999.90;;;8.50;99.90;;;;;;5015206;28;20587;-72
2023/04/08 04:56:02;;;;;;;1999.90;999.90;;;8.50;99.90;;;;;;5015607;28;20281;-72
2023/04/08 04:58:28;;;;;;;1999.90;999.90;;;8.50;99.90;;;;;;5015543;28;20174;-72
2023/04/08 05:00:55;;;;;;;1999.90;999.90;;;8.50;99.90;;;;;;5014922;28;20178;-72
2023/04/08 05:03:20;;;;;;;1999.90;999.90;;;8.60;99.90;;;;;;5015311;28;20411;-72
2023/04/08 05:05:51;;;;;;;1999.90;999.90;;;8.50;99.90;;;;;;5015305;28;20426;-72
2023/04/08 05:08:16;;;;;;;1999.90;999.90;;;8.50;99.90;;;;;;5015043;28;20163;-72
2023/04/08 05:10:42;;;;;;;1999.90;999.90;;;8.60;99.90;;;;;;5015320;28;20525;-72
2023/04/08 05:13:08;;;;;;;1999.90;999.90;;;8.50;99.90;;;;;;5014997;28;20191;-72
2023/04/08 05:15:33;;;;;;;1999.90;999.90;;;8.50;99.90;;;;;;5014902;28;20221;-72
2023/04/08 05:17:59;;;;;;;1999.90;999.90;;;8.50;99.90;;;;;;5014879;28;20175;-72
2023/04/08 05:20:24;;;;;;;1999.90;999.90;;;8.50;99.90;;;;;;5015144;28;20205;-72
2023/04/08 05:22:50;;;;;;;1999.90;999.90;;;8.50;99.90;;;;;;5014808;28;20169;-72
2023/04/08 05:25:16;;;;;;;1999.90;999.90;;;8.50;99.90;;;;;;5014607;28;20205;-71
2023/04/08 05:27:41;;;;;;;1999.90;999.90;;;8.50;99.90;;;;;;5015004;28;20186;-72
2023/04/08 05:30:08;;;;;;;1999.90;999.90;;;8.50;99.90;;;;;;5014890;28;20324;-72
2023/04/08 05:32:34;;;;;;;1999.90;999.90;;;8.60;99.90;;;;;;5014195;28;20169;-72
2023/04/08 05:35:02;;;;;;;1999.90;999.90;;;8.50;99.90;;;;;;5014895;28;20497;-72
2023/04/08 05:37:28;;;;;;;1999.90;999.90;;;8.50;99.90;;;;;;5014916;28;20163;-72
2023/04/08 05:39:53;;;;;;;1999.90;999.90;;;8.50;99.90;;;;;;5014371;28;20467;-72
2023/04/08 05:42:19;;;;;;;1999.90;999.90;;;8.40;99.90;;;;;;5014442;28;20170;-72
2023/04/08 05:44:44;;;;;;;1999.90;999.90;;;8.60;99.90;;;;;;5014399;28;20216;-72
2023/04/08 05:47:10;;;;;;;1999.90;999.90;;;8.40;99.90;;;;;;5014415;28;20242;-72
2023/04/08 05:49:35;;;;;;;1999.90;999.90;;;8.40;99.90;;;;;;5014557;28;20180;-73
2023/04/08 05:52:02;;;;;;;1999.90;999.90;;;8.50;99.90;;;;;;5014407;28;20228;-72
2023/04/08 05:54:28;;;;;;;1999.90;999.90;;;8.70;99.90;;;;;;5013305;28;20203;-72
2023/04/08 05:56:53;;;;;;;1999.90;999.90;;;8.40;99.90;;;;;;5014508;28;20436;-72
2023/04/08 05:59:19;;;;;;;1999.90;999.90;;;8.30;99.90;;;;;;5014389;28;20249;-72
2023/04/08 06:01:45;;;;;;;1999.90;999.90;;;8.30;99.90;;;;;;5013598;28;20223;-72
2023/04/08 06:04:10;;;;;;;1999.90;999.90;;;8.40;99.90;;;;;;5014342;28;20182;-72
2023/04/08 06:06:39;;;;;;;1999.90;999.90;;;8.50;99.90;;;;;;5014198;28;20783;-72
2023/04/08 06:09:05;;;;;;;1999.90;999.90;;;8.30;99.90;;;;;;5013879;28;20184;-72
2023/04/08 06:11:31;;;;;;;1999.90;999.90;;;8.50;99.90;;;;;;5014010;28;20409;-72
2023/04/08 06:13:56;;;;;;;1999.90;999.90;;;8.40;99.90;;;;;;5014068;28;20694;-72
2023/04/08 06:16:22;;;;;;;1999.90;999.90;;;8.40;99.90;;;;;;5013402;28;20205;-72
2023/04/08 06:18:48;;;;;;;1999.90;999.90;;;8.40;99.90;;;;;;5014002;28;20254;-71
2023/04/08 06:21:13;;;;;;;1999.90;999.90;;;8.70;99.90;;;;;;5013879;28;20178;-71
2023/04/08 06:23:39;;;;;;;1999.90;999.90;;;8.50;99.90;;;;;;5013580;28;20444;-72
2023/04/08 06:26:05;;;;;;;1999.90;999.90;;;8.50;99.90;;;;;;5013909;28;20196;-72
2023/04/08 06:28:31;;;;;;;1999.90;999.90;;;8.50;99.90;;;;;;5013845;28;20183;-72
2023/04/08 06:30:57;;;;;;;1999.90;999.90;;;8.60;99.90;;;;;;5013248;28;20183;-72
2023/04/08 06:33:23;;;;;;;1999.90;999.90;;;8.50;99.90;;;;;;5013950;28;20425;-72
2023/04/08 06:35:48;;;;;;;1999.90;999.90;;;8.50;99.90;;;;;;5013723;28;20446;-72
2023/04/08 06:38:14;;;;;;;1999.90;999.90;;;8.60;99.90;;;;;;5013351;28;20190;-72
2023/04/08 06:40:40;;;;;;;1999.90;999.90;;;8.50;99.90;;;;;;5013768;28;20217;-70
2023/04/08 06:43:06;;;;;;;1999.90;999.90;;;8.50;99.90;;;;;;5013236;28;20174;-72
2023/04/08 06:45:32;;;;;;;1999.90;999.90;;;8.50;99.90;;;;;;5013119;28;20211;-71
2023/04/08 06:47:58;;;;;;;1999.90;999.90;;;8.60;99.90;;;;;;5013503;28;20468;-71
2023/04/08 06:50:23;;;;;;;1999.90;999.90;;;8.60;99.90;;;;;;5013490;28;20872;-72
2023/04/08 06:52:49;;;;;;;1999.90;999.90;;;8.60;99.90;;;;;;5012843;28;20540;-72
2023/04/08 06:55:15;;;;;;;1999.90;999.90;;;8.70;99.90;;;;;;5013152;28;20242;-72
2023/04/08 06:57:40;;;;;;;1999.90;999.90;;;8.70;99.90;;;;;;5000528;28;20215;-72
2023/04/08 07:00:07;;;;;;;1999.90;999.90;;;8.70;99.90;;;;;;5000348;28;20421;-72
2023/04/08 07:02:33;;;;;;;1999.90;999.90;;;8.70;99.90;;;;;;5002133;28;20175;-72
2023/04/08 07:04:58;;;;;;;1999.90;999.90;;;8.80;99.90;;;;;;4998216;28;20462;-71
2023/04/08 07:07:25;;;;;;;1999.90;999.90;;;8.80;99.90;;;;;;4992321;28;20183;-72
2023/04/08 07:09:50;;;;;;;1999.90;999.90;;;8.90;99.90;;;;;;4993480;28;20196;-72
2023/04/08 07:12:16;;;;;;;1999.90;999.90;;;9.00;99.90;;;;;;4993075;28;20458;-72
2023/04/08 07:14:41;;;;;;;1999.90;999.90;;;9.10;99.90;;;;;;4992843;28;20206;-72
2023/04/08 07:17:07;;;;;;;1999.90;999.90;;;9.10;99.90;;;;;;4993329;28;20192;-72
2023/04/08 07:19:33;;;;;;;1999.90;999.90;;;9.10;99.90;;;;;;4993352;28;20538;-72
2023/04/08 07:21:58;;;;;;;1999.90;999.90;;;9.20;99.90;;;;;;4992704;28;20203;-72
2023/04/08 07:24:24;;;;;;;1999.90;999.90;;;9.30;99.90;;;;;;4993270;28;20646;-72
2023/04/08 07:26:50;;;;;;;1999.90;999.90;;;9.40;99.90;;;;;;4993037;28;20572;-72
2023/04/08 07:29:15;;;;;;;1999.90;999.90;;;9.50;99.90;;;;;;4992934;28;20669;-72
2023/04/08 07:31:44;;;;;;;1999.90;999.90;;;9.50;99.90;;;;;;4992845;28;20416;-71
2023/04/08 07:34:10;;;;;;;1999.90;999.90;;;9.60;99.90;;;;;;4992994;28;20275;-72
2023/04/08 07:36:37;;;;;;;1999.90;999.90;;;9.60;99.90;;;;;;4992690;28;20482;-72
2023/04/08 07:39:02;;;;;;;1999.90;999.90;;;9.80;99.90;;;;;;4993042;28;20434;-72
2023/04/08 07:41:28;;;;;;;1999.90;999.90;;;9.80;99.90;;;;;;4992557;28;20924;-72
2023/04/08 07:43:54;;;;;;;1999.90;999.90;;;10.00;99.90;;;;;;4992446;28;20181;-72
2023/04/08 07:46:20;;;;;;;1999.90;999.90;;;10.00;99.90;;;;;;4992997;28;20287;-72
2023/04/08 07:48:46;;;;;;;1999.90;999.90;;;10.00;99.90;;;;;;4992841;28;20503;-71
2023/04/08 07:51:12;;;;;;;1999.90;999.90;;;10.00;99.90;;;;;;4992138;28;20208;-72
2023/04/08 07:53:39;;;;;;;1999.90;999.90;;;10.20;99.90;;;;;;4992722;28;20176;-72
2023/04/08 07:56:11;;;;;;;1999.90;999.90;;;10.00;99.90;;;;;;4992499;28;20436;-72
2023/04/08 07:58:37;;;;;;;1999.90;999.90;;;9.90;99.90;;;;;;4992274;28;20461;-72
2023/04/08 08:01:02;;;;;;;1999.90;999.90;;;10.00;99.90;;;;;;4992259;28;20404;-72
2023/04/08 08:03:28;;;;;;;1999.90;999.90;;;10.00;99.90;;;;;;4992691;28;20198;-71
2023/04/08 08:05:54;;;;;;;1999.90;999.90;;;10.10;99.90;;;;;;4992098;28;20193;-72
2023/04/08 08:08:19;;;;;;;1999.90;999.90;;;10.50;99.90;;;;;;4992567;28;20173;-72
2023/04/08 08:10:45;;;;;;;1999.90;999.90;;;10.40;99.90;;;;;;4992387;28;20201;-72
2023/04/08 08:13:13;;;;;;;1999.90;999.90;;;10.60;99.90;;;;;;4991991;28;20249;-72
2023/04/08 08:15:39;;;;;;;1999.90;999.90;;;10.80;99.90;;;;;;5000431;28;20343;-70
2023/04/08 08:18:05;;;;;;;1999.90;999.90;;;11.00;99.90;;;;;;5007250;28;20499;-70
2023/04/08 08:20:30;;;;;;;1999.90;999.90;;;11.00;99.90;;;;;;5007969;28;20177;-72
2023/04/08 08:22:56;;;;;;;1999.90;999.90;;;11.00;99.90;;;;;;5008191;28;20515;-72
2023/04/08 08:25:21;;;;;;;1999.90;999.90;;;10.80;99.90;;;;;;5007403;28;20200;-71
2023/04/08 08:27:47;;;;;;;1999.90;999.90;;;10.90;99.90;;;;;;5008097;28;20234;-73
2023/04/08 08:30:13;;;;;;;1999.90;999.90;;;10.90;99.90;;;;;;5005544;28;20184;-72
2023/04/08 08:32:39;;;;;;;1999.90;999.90;;;11.00;99.90;;;;;;4987441;28;20424;-72
2023/04/08 08:35:05;;;;;;;1999.90;999.90;;;11.20;99.90;;;;;;4988355;28;20217;-71
2023/04/08 08:37:30;;;;;;;1999.90;999.90;;;11.00;99.90;;;;;;4987754;28;20189;-71
2023/04/08 08:39:56;;;;;;;1999.90;999.90;;;11.10;99.90;;;;;;4987767;28;20428;-71
2023/04/08 08:42:23;;;;;;;1999.90;999.90;;;10.80;99.90;;;;;;4988410;28;20173;-71
2023/04/08 08:44:49;;;;;;;1999.90;999.90;;;10.70;99.90;;;;;;4987436;28;20184;-71
2023/04/08 08:47:18;;;;;;;1999.90;999.90;;;10.70;99.90;;;;;;4987826;28;20853;-72
2023/04/08 08:49:44;;;;;;;1999.90;999.90;;;10.80;99.90;;;;;;4988415;28;20445;-71
2023/04/08 08:52:14;;;;;;;1999.90;999.90;;;10.90;99.90;;;;;;4987230;28;20420;-71
2023/04/08 08:54:39;;;;;;;1999.90;999.90;;;10.80;99.90;;;;;;4987476;28;20514;-72
2023/04/08 08:57:18;;;;;;;1999.90;999.90;;;10.90;99.90;;;;;;4988271;28;20416;-72
2023/04/08 08:59:47;;;;;;;1999.90;999.90;;;11.10;99.90;;;;;;4987589;28;20173;-72
2023/04/08 09:02:42;;;;;;;1999.90;999.90;;;11.20;99.90;;;;;;4988264;28;20409;-71
2023/04/08 09:05:08;;;;;;;1999.90;999.90;;;11.00;99.90;;;;;;4974355;28;20532;-71
2023/04/08 09:07:40;;;;;;;1999.90;999.90;;;10.90;99.90;;;;;;4988142;28;20420;-72
2023/04/08 09:10:06;;;;;;;1999.90;999.90;;;10.90;99.90;;;;;;4988425;28;20987;-71
2023/04/08 09:12:32;;;;;;;1999.90;999.90;;;10.90;99.90;;;;;;4986959;28;20467;-72
2023/04/08 09:15:08;;;;;;;1999.90;999.90;;;10.80;99.90;;;;;;4987398;28;20456;-72
2023/04/08 09:17:38;;;;;;;1999.90;999.90;;;10.90;99.90;;;;;;4987599;28;20192;-71
2023/04/08 09:20:13;;;;;;;1999.90;999.90;;;11.00;99.90;;;;;;4987744;28;20945;-71
2023/04/08 09:22:59;;;;;;;1999.90;999.90;;;11.00;99.90;;;;;;4987918;28;20775;-72
2023/04/08 09:25:27;;;;;;;1999.90;999.90;;;11.10;99.90;;;;;;4987288;28;20436;-71
2023/04/08 09:27:53;;;;;;;1999.90;999.90;;;11.20;99.90;;;;;;4987653;28;20467;-71
2023/04/08 09:30:21;;;;;;;1999.90;999.90;;;11.20;99.90;;;;;;4989969;28;20423;-72
2023/04/08 09:32:55;;;;;;;1999.90;999.90;;;11.40;99.90;;;;;;4990684;28;20492;-72
2023/04/08 09:35:22;;;;;;;1999.90;999.90;;;11.60;99.90;;;;;;4990341;28;20452;-71
2023/04/08 09:37:48;;;;;;;1999.90;999.90;;;11.70;99.90;;;;;;5038814;23;20518;-71
2023/04/08 09:40:15;;;;;;;1999.90;999.90;;;11.80;99.90;;;;;;5010451;28;20494;-72
2023/04/08 09:42:47;;;;;;;1999.90;999.90;;;11.80;99.90;;;;;;5010582;28;20418;-72
2023/04/08 09:45:15;;;;;;;1999.90;999.90;;;12.00;99.90;;;;;;5010975;28;20419;-69
2023/04/08 09:47:53;;;;;;;1999.90;999.90;;;12.20;99.90;;;;;;5012248;28;20470;-72
2023/04/08 09:50:23;;;;;;;1999.90;999.90;;;12.20;99.90;;;;;;5011981;28;20439;-71
2023/04/08 09:52:56;;;;;;;1999.90;999.90;;;12.20;99.90;;;;;;5009841;28;20488;-72
2023/04/08 09:55:24;;;;;;;1999.90;999.90;;;12.10;99.90;;;;;;5010935;28;20460;-70
2023/04/08 09:57:54;;;;;;;1999.90;999.90;;;12.20;99.90;;;;;;5011246;28;20435;-71
2023/04/08 10:00:24;;;;;;;1999.90;999.90;;;12.00;99.90;;;;;;5010850;28;20414;-70
2023/04/08 10:03:11;;;;;;;1999.90;999.90;;;12.00;99.90;;;;;;5010559;28;20503;-71
2023/04/08 10:05:39;;;;;;;1999.90;999.90;;;12.00;99.90;;;;;;5010055;28;20467;-72
2023/04/08 10:08:06;;;;;;;1999.90;999.90;;;12.00;99.90;;;;;;5010597;28;20442;-72
2023/04/08 10:10:34;;;;;;;1999.90;999.90;;;12.00;99.90;;;;;;5009756;28;20474;-71
2023/04/08 10:13:00;;;;;;;1999.90;999.90;;;11.90;99.90;;;;;;5009195;28;20478;-70
2023/04/08 10:15:31;;;;;;;1999.90;999.90;;;12.00;99.90;;;;;;5010502;28;20462;-70
2023/04/08 10:18:05;;;;;;;1999.90;999.90;;;11.90;99.90;;;;;;5009687;28;20775;-72
2023/04/08 10:20:33;;;;;;;1999.90;999.90;;;12.00;99.90;;;;;;5009352;28;20408;-70
2023/04/08 10:23:10;;;;;;;1999.90;999.90;;;12.10;99.90;;;;;;5009358;28;20499;-71
2023/04/08 10:25:48;;;;;;;1999.90;999.90;;;12.00;99.90;;;;;;5009600;28;20508;-72
2023/04/08 10:28:14;;;;;;;1999.90;999.90;;;12.00;99.90;;;;;;5009386;28;20433;-71
2023/04/08 10:30:48;;;;;;;1999.90;999.90;;;12.10;99.90;;;;;;5010290;28;20419;-71
2023/04/08 10:33:20;;;;;;;1999.90;999.90;;;12.10;99.90;;;;;;5010079;28;20420;-72
2023/04/08 10:35:54;;;;;;;1999.90;999.90;;;12.20;99.90;;;;;;5009476;28;20475;-71
2023/04/08 10:38:20;;;;;;;1999.90;999.90;;;12.20;99.90;;;;;;5011112;28;20451;-72
2023/04/08 10:40:47;;;;;;;1999.90;999.90;;;12.20;99.90;;;;;;5009231;28;21122;-71
2023/04/08 10:43:14;;;;;;;1999.90;999.90;;;12.20;99.90;;;;;;5009650;28;20419;-71
2023/04/08 10:45:41;;;;;;;1999.90;999.90;;;12.30;99.90;;;;;;5009719;28;21019;-71
2023/04/08 10:48:17;;;;;;;1999.90;999.90;;;12.40;99.90;;;;;;5009087;28;20429;-72
2023/04/08 10:51:02;;;;;;;1999.90;999.90;;;12.60;99.90;;;;;;5009115;28;20810;-71
2023/04/08 10:53:40;;;;;;;1999.90;999.90;;;12.60;99.90;;;;;;5008917;28;20510;-71
2023/04/08 10:56:17;;;;;;;1999.90;999.90;;;12.60;99.90;;;;;;5008741;28;20428;-71
2023/04/08 10:58:51;;;;;;;1999.90;999.90;;;12.40;99.90;;;;;;5009123;28;20436;-72
2023/04/08 11:01:17;;;;;;;1999.90;999.90;;;12.30;99.90;;;;;;4993052;28;20435;-72
2023/04/08 11:03:43;;;;;;;1999.90;999.90;;;12.20;99.90;;;;;;5009500;28;20421;-72
2023/04/08 11:06:10;;;;;;;1999.90;999.90;;;12.30;99.90;;;;;;5009599;28;20812;-72
2023/04/08 11:08:36;;;;;;;1999.90;999.90;;;12.30;99.90;;;;;;4991005;28;20523;-71
2023/04/08 11:11:03;;;;;;;1999.90;999.90;;;12.40;99.90;;;;;;5008493;28;20422;-69
2023/04/08 11:13:29;;;;;;;1999.90;999.90;;;12.70;99.90;;;;;;5009654;28;20422;-71
2023/04/08 11:15:59;;;;;;;1999.90;999.90;;;13.10;99.90;;;;;;5008578;28;20791;-70
2023/04/08 11:18:25;;;;;;;1999.90;999.90;;;13.30;99.90;;;;;;5008092;28;20557;-70
2023/04/08 11:20:51;;;;;;;1999.90;999.90;;;13.20;99.90;;;;;;5009857;28;20978;-71
2023/04/08 11:23:17;;;;;;;1999.90;999.90;;;13.40;99.90;;;;;;5008540;28;20175;-70
2023/04/08 11:25:45;;;;;;;1999.90;999.90;;;13.50;99.90;;;;;;5008485;28;20788;-71
2023/04/08 11:28:12;;;;;;;1999.90;999.90;;;13.60;99.90;;;;;;5009308;28;20187;-70
2023/04/08 11:30:39;;;;;;;1999.90;999.90;;;13.60;99.90;;;;;;5008429;28;20468;-71
2023/04/08 11:33:06;;;;;;;1999.90;999.90;;;13.40;99.90;;;;;;5007786;28;20476;-71
2023/04/08 11:35:32;;;;;;;1999.90;999.90;;;13.50;99.90;;;;;;5009090;28;20453;-71
2023/04/08 11:37:58;;;;;;;1999.90;999.90;;;13.90;99.90;;;;;;5008603;28;20470;-70
2023/04/08 11:40:25;;;;;;;1999.90;999.90;;;14.10;99.90;;;;;;5007897;28;20420;-70
2023/04/08 11:42:51;;;;;;;1999.90;999.90;;;14.10;99.90;;;;;;5008420;28;20178;-71
2023/04/08 11:45:18;;;;;;;1999.90;999.90;;;14.10;99.90;;;;;;5008366;28;20427;-71
2023/04/08 11:47:46;;;;;;;1999.90;999.90;;;14.30;99.90;;;;;;5008274;28;20566;-72
2023/04/08 11:50:11;;;;;;;1999.90;999.90;;;14.50;99.90;;;;;;5008874;28;20793;-71
2023/04/08 11:52:48;;;;;;;1999.90;999.90;;;14.50;99.90;;;;;;5008853;28;20418;-71
2023/04/08 11:55:28;;;;;;;1999.90;999.90;;;14.40;99.90;;;;;;5008726;28;20225;-71
2023/04/08 11:57:55;;;;;;;1999.90;999.90;;;14.50;99.90;;;;;;5010667;28;20453;-71
2023/04/08 12:00:22;;;;;;;1999.90;999.90;;;14.70;99.90;;;;;;5008098;28;20413;-70
2023/04/08 12:02:48;;;;;;;1999.90;999.90;;;14.80;99.90;;;;;;5008794;28;20408;-70
2023/04/08 12:05:15;;;;;;;1999.90;999.90;;;14.60;99.90;;;;;;5009298;28;20424;-72
2023/04/08 12:07:41;;;;;;;1999.90;999.90;;;14.30;99.90;;;;;;5010129;28;20489;-71